Proberta, California
Current Conditions -  °F | °C
As of 8:54 AM on Saturday 25 Oct 2014 (Local Time) from KRBL Reporting Station
Overcast Overcast  
Wind Chill: 59°   Ceiling: 1200
Heat Index: 59°   Visibility: 10mi
Dew Point: 56°   Wind: 22mph
Humidity: 90%   Direction: 150°SSE
Pressure: 29.86"   Gusts: 31mph
Location:  40.08°N, 122.17°W
Report Text: KRBL 251554Z AUTO 15019G27KT 10SM BKN012 OVC018 15/13 A2986 RMK AO2 PK WND 15029/1525 SLP110 T01500133
Loading
Personal Weather Stations






























Interactive Weather Map
Tropical Storm Tracking
New forecast layout! Learn more

10-Day Weather Forecast

Advertisements
Track Severe Weather on mobile